Terminal Aerodrome Forecast
Issued by NWS Greer, SC

Home | Current Version | Previous Version | Text Only | Print | Product List | Glossary On
Versions: 1 2 3 4 5 6 7 8 9 10 11 12 13 14 15 16 17 18 19 20 21 22 23 24
000
FTUS42 KGSP 171018 AAC
TAFGSP
TAF AMD
KGSP 171018Z 1710/1806 VRB02KT P6SM FEW100
      TEMPO 1710/1712 6SM BR
     FM171300 28003KT P6SM FEW150
     FM171600 22006KT P6SM SCT060 PROB30 1719/1724 4SM -TSRA
      BKN040CB
     FM180200 23003KT P6SM FEW060 SCT150=

USA.gov is the U.S. government's official web portal to all federal, state and local government web resources and services.